Time;durP1;ratioP1;P1;durP2;ratioP2;P2;SDS_P1;SDS_P2;PMS_P1;PMS_P2;Temp;Humidity;BMP_temperature;BMP_pressure;BME280_temperature;BME280_humidity;BME280_pressure;Samples;Min_cycle;Max_cycle;Signal;HPM_P1;HPM_P2
2023/04/19 00:00:34;;;;;;;4.27;3.90;;;18.40;58.60;19.20;101746.00;;;;5031843;28;20438;-51
2023/04/19 00:03:01;;;;;;;4.37;4.00;;;18.40;59.20;19.20;101744.00;;;;5026517;28;20683;-50
2023/04/19 00:05:27;;;;;;;4.70;4.30;;;18.40;58.60;19.20;101733.00;;;;5027593;28;20853;-51
2023/04/19 00:07:53;;;;;;;4.40;4.10;;;18.40;58.60;19.20;101736.00;;;;5032360;28;20187;-50
2023/04/19 00:10:19;;;;;;;4.50;4.20;;;18.40;58.60;19.10;101732.00;;;;5031990;28;20671;-51
2023/04/19 00:12:44;;;;;;;4.80;4.40;;;18.40;58.60;19.10;101722.00;;;;5031590;28;20182;-50
2023/04/19 00:15:10;;;;;;;4.80;4.40;;;18.30;58.50;19.10;101720.00;;;;5023510;28;20266;-49
2023/04/19 00:17:36;;;;;;;4.43;4.13;;;18.30;58.50;19.10;101726.00;;;;5031824;28;20206;-49
2023/04/19 00:20:02;;;;;;;4.70;4.40;;;18.30;58.60;19.10;101723.00;;;;5031935;28;20209;-49
2023/04/19 00:22:28;;;;;;;4.40;4.10;;;18.40;58.60;19.10;101715.00;;;;5031431;28;20533;-51
2023/04/19 00:24:54;;;;;;;4.57;4.17;;;18.30;58.60;19.10;101719.00;;;;5031099;28;20175;-50
2023/04/19 00:27:20;;;;;;;3.90;3.60;;;18.30;58.60;19.10;101723.00;;;;5031311;28;20280;-49
2023/04/19 00:29:45;;;;;;;4.10;3.80;;;18.30;58.60;19.10;101717.00;;;;5031200;28;20644;-49
2023/04/19 00:32:12;;;;;;;4.50;4.20;;;18.30;58.60;19.10;101726.00;;;;5031579;28;20326;-51
2023/04/19 00:34:38;;;;;;;4.97;4.60;;;18.30;58.70;19.10;101723.00;;;;5031141;28;20218;-49
2023/04/19 00:37:04;;;;;;;4.20;3.90;;;18.30;58.70;19.10;101651.00;;;;5030821;28;20203;-49
2023/04/19 00:39:30;;;;;;;4.50;4.20;;;18.30;58.70;19.10;101716.00;;;;5031464;28;20264;-49
2023/04/19 00:41:56;;;;;;;4.60;4.20;;;18.30;58.70;19.00;101726.00;;;;5031338;28;20198;-49
2023/04/19 00:44:22;;;;;;;4.60;4.30;;;18.30;58.60;19.00;101718.00;;;;5030839;28;20182;-49
2023/04/19 00:46:48;;;;;;;4.60;4.30;;;18.30;58.70;19.00;101724.00;;;;5030075;28;20271;-50
2023/04/19 00:49:15;;;;;;;4.53;4.13;;;18.20;58.60;19.00;101723.00;;;;5030268;28;20440;-49
2023/04/19 00:51:41;;;;;;;4.57;4.27;;;18.20;58.70;19.00;101719.00;;;;5031535;28;20934;-49
2023/04/19 00:54:07;;;;;;;4.30;4.00;;;18.20;58.70;19.00;101712.00;;;;5029772;28;20252;-49
2023/04/19 00:56:33;;;;;;;4.50;4.20;;;18.20;58.70;19.00;101713.00;;;;5031233;28;20253;-50
2023/04/19 00:58:59;;;;;;;4.23;3.93;;;18.20;58.70;19.00;101709.00;;;;5031356;28;20186;-50
2023/04/19 01:01:24;;;;;;;4.30;4.00;;;18.20;58.70;19.00;101704.00;;;;5044422;28;20708;-50
2023/04/19 01:03:50;;;;;;;4.37;4.07;;;18.20;58.70;18.90;101703.00;;;;5036874;28;20596;-51
2023/04/19 01:06:16;;;;;;;4.77;4.37;;;18.20;58.80;18.90;101700.00;;;;5033224;28;20281;-50
2023/04/19 01:08:42;;;;;;;5.77;5.27;;;18.20;58.90;18.90;101701.00;;;;5029054;28;20756;-49
2023/04/19 01:11:08;;;;;;;5.83;5.43;;;18.10;58.80;18.90;101700.00;;;;5032525;28;20193;-50
2023/04/19 01:13:34;;;;;;;6.60;6.00;;;18.10;58.50;18.90;101701.00;;;;5024878;28;20170;-49
2023/04/19 01:16:00;;;;;;;6.23;5.70;;;18.10;58.50;18.90;101696.00;;;;5043861;28;20193;-49
2023/04/19 01:18:31;;;;;;;6.03;5.53;;;18.10;58.60;18.90;101699.00;;;;5034607;28;20198;-50
2023/04/19 01:20:58;;;;;;;5.57;5.10;;;18.10;58.60;18.90;101699.00;;;;5030642;28;20570;-49
2023/04/19 01:23:23;;;;;;;5.00;4.60;;;18.20;58.60;18.90;101701.00;;;;5030349;28;20182;-49
2023/04/19 01:25:49;;;;;;;5.20;4.80;;;18.10;58.60;18.90;101697.00;;;;5030376;28;20241;-49
2023/04/19 01:28:15;;;;;;;5.30;4.90;;;18.20;59.30;18.90;101695.00;;;;5030290;28;20226;-50
2023/04/19 01:30:42;;;;;;;5.93;5.00;;;18.10;58.60;18.90;101695.00;;;;5030133;28;20183;-49
2023/04/19 01:33:07;;;;;;;5.30;4.80;;;18.10;58.70;18.90;101693.00;;;;5029550;28;20189;-50
2023/04/19 01:35:33;;;;;;;5.43;5.03;;;18.10;58.70;18.90;101700.00;;;;5029234;28;20190;-49
2023/04/19 01:37:59;;;;;;;5.40;5.00;;;18.10;58.70;18.90;101692.00;;;;5029835;28;20202;-49
2023/04/19 01:40:25;;;;;;;5.60;5.20;;;18.10;58.70;18.90;101625.00;;;;5033302;28;20183;-48
2023/04/19 01:42:51;;;;;;;5.40;4.90;;;18.10;58.70;18.80;101689.00;;;;5036189;28;20520;-49
2023/04/19 01:45:17;;;;;;;5.37;4.90;;;18.10;58.70;18.80;101698.00;;;;5034501;28;20167;-50
2023/04/19 01:47:43;;;;;;;5.40;5.00;;;18.10;58.70;18.80;101691.00;;;;5023362;28;20204;-50
2023/04/19 01:50:09;;;;;;;5.13;4.73;;;18.10;58.70;18.80;101693.00;;;;5029689;28;20171;-49
2023/04/19 01:52:35;;;;;;;5.20;4.80;;;18.00;58.60;18.80;101684.00;;;;5030040;28;20243;-49
2023/04/19 01:55:00;;;;;;;4.93;4.47;;;18.00;58.60;18.80;101682.00;;;;5028567;28;20261;-52
2023/04/19 01:57:26;;;;;;;5.40;4.80;;;18.10;58.70;18.80;101676.00;;;;5029472;28;20206;-50
2023/04/19 01:59:55;;;;;;;5.10;4.70;;;18.00;58.60;18.80;101677.00;;;;5021531;28;20179;-49
2023/04/19 02:02:21;;;;;;;4.90;4.50;;;18.00;58.60;18.80;101672.00;;;;5029527;28;20220;-51
2023/04/19 02:04:47;;;;;;;4.77;4.47;;;18.00;58.60;18.80;101680.00;;;;5029450;28;20183;-50
2023/04/19 02:07:13;;;;;;;4.97;4.50;;;18.00;58.60;18.70;101673.00;;;;5029506;28;20676;-49
2023/04/19 02:09:38;;;;;;;5.10;4.70;;;18.00;58.60;18.70;101676.00;;;;5029578;28;20189;-49
2023/04/19 02:12:04;;;;;;;5.10;4.70;;;18.00;58.60;18.70;101677.00;;;;5029599;28;20195;-51
2023/04/19 02:14:31;;;;;;;4.90;4.50;;;18.00;59.20;18.70;101684.00;;;;5029102;28;20187;-51
2023/04/19 02:16:57;;;;;;;5.17;4.77;;;18.00;58.60;18.70;101682.00;;;;5021113;28;20303;-50
2023/04/19 02:19:22;;;;;;;4.70;4.30;;;17.90;58.50;18.70;101672.00;;;;5029545;28;20794;-50
2023/04/19 02:21:48;;;;;;;4.80;4.40;;;18.00;58.60;18.70;101668.00;;;;5029372;28;20207;-50
2023/04/19 02:24:14;;;;;;;5.23;4.83;;;17.90;58.50;18.70;101667.00;;;;5029213;28;20229;-49
2023/04/19 02:26:40;;;;;;;4.97;4.57;;;17.90;58.50;18.70;101686.00;;;;5029133;28;20208;-49
2023/04/19 02:29:06;;;;;;;5.07;4.67;;;17.90;58.50;18.70;101676.00;;;;5029191;28;20269;-49
2023/04/19 02:31:32;;;;;;;4.97;4.47;;;17.90;58.50;18.70;101682.00;;;;5029293;28;20366;-49
2023/04/19 02:33:57;;;;;;;4.53;4.23;;;17.90;58.60;18.60;101678.00;;;;5029165;28;20263;-50
2023/04/19 02:36:23;;;;;;;5.03;4.63;;;17.90;58.60;18.60;101671.00;;;;5028939;28;20210;-50
2023/04/19 02:38:49;;;;;;;5.07;4.60;;;17.90;58.60;18.60;101670.00;;;;5029044;28;20820;-51
2023/04/19 02:41:15;;;;;;;4.97;4.57;;;17.90;58.70;18.60;101676.00;;;;5028985;28;20248;-51
2023/04/19 02:43:40;;;;;;;4.37;4.07;;;17.90;58.70;18.60;101682.00;;;;5032483;28;20247;-49
2023/04/19 02:46:06;;;;;;;4.90;4.50;;;17.90;58.70;18.60;101683.00;;;;5030648;28;20184;-49
2023/04/19 02:48:32;;;;;;;4.30;4.00;;;17.90;58.80;18.60;101673.00;;;;5028918;28;20285;-51
2023/04/19 02:50:58;;;;;;;5.00;4.60;;;17.90;58.80;18.60;101672.00;;;;5028918;28;20178;-50
2023/04/19 02:53:23;;;;;;;4.27;3.97;;;17.80;58.70;18.60;101676.00;;;;5027367;28;20212;-51
2023/04/19 02:55:49;;;;;;;4.37;4.07;;;17.90;58.80;18.60;101688.00;;;;5028676;28;20192;-49
2023/04/19 02:58:15;;;;;;;4.10;3.80;;;17.90;58.80;18.60;101682.00;;;;5029045;28;20263;-49
2023/04/19 03:00:41;;;;;;;4.40;4.10;;;17.80;58.70;18.60;101675.00;;;;5031958;28;20207;-50
2023/04/19 03:03:08;;;;;;;4.90;4.50;;;17.80;58.70;18.60;101678.00;;;;5036005;28;20183;-49
2023/04/19 03:05:34;;;;;;;4.43;4.13;;;17.80;58.70;18.60;101671.00;;;;5021791;28;20220;-50
2023/04/19 03:07:59;;;;;;;4.70;4.30;;;17.80;58.70;18.60;101680.00;;;;5024253;28;20575;-49
2023/04/19 03:10:25;;;;;;;4.40;4.10;;;17.80;58.70;18.60;101670.00;;;;5022754;28;20227;-49
2023/04/19 03:12:51;;;;;;;4.50;4.20;;;17.80;58.70;18.60;101653.00;;;;5019476;28;20220;-51
2023/04/19 03:15:17;;;;;;;4.50;4.20;;;17.80;58.70;18.60;101670.00;;;;5038967;28;20175;-50
2023/04/19 03:17:43;;;;;;;4.40;4.10;;;17.80;58.70;18.50;101658.00;;;;5025653;28;20270;-49
2023/04/19 03:20:12;;;;;;;4.60;4.20;;;17.80;58.80;18.50;101659.00;;;;5020594;28;20185;-50
2023/04/19 03:22:38;;;;;;;4.90;4.50;;;17.80;58.70;18.50;101665.00;;;;5028545;28;20573;-48
2023/04/19 03:25:05;;;;;;;4.57;4.27;;;17.70;58.70;18.50;101659.00;;;;5026945;28;20503;-50
2023/04/19 03:27:34;;;;;;;4.33;4.03;;;17.80;58.70;18.50;101657.00;;;;5028228;28;20221;-49
2023/04/19 03:30:00;;;;;;;4.10;3.80;;;17.80;58.80;18.50;101659.00;;;;5028585;28;20190;-48
2023/04/19 03:32:26;;;;;;;4.30;4.00;;;17.70;58.70;18.50;101653.00;;;;5024323;28;20211;-48
2023/04/19 03:34:51;;;;;;;4.20;3.80;;;17.70;58.80;18.50;101649.00;;;;5027901;28;20662;-49
2023/04/19 03:37:17;;;;;;;4.57;4.27;;;17.80;59.80;18.50;101653.00;;;;5028522;28;20208;-48
2023/04/19 03:39:43;;;;;;;4.40;3.93;;;17.70;59.30;18.50;101651.00;;;;5028695;28;20175;-52
2023/04/19 03:42:09;;;;;;;4.60;4.20;;;17.70;59.10;18.50;101653.00;;;;5027480;28;20212;-50
2023/04/19 03:44:35;;;;;;;4.40;4.00;;;17.70;59.10;18.50;101646.00;;;;5028615;28;20178;-50
2023/04/19 03:47:00;;;;;;;4.37;4.07;;;17.70;59.20;18.50;101647.00;;;;5030410;28;20202;-49
2023/04/19 03:49:26;;;;;;;4.43;4.13;;;17.70;59.20;18.50;101646.00;;;;5029854;28;20239;-51
2023/04/19 03:51:52;;;;;;;4.30;4.00;;;17.70;59.20;18.30;101644.00;;;;5029989;28;20188;-52
2023/04/19 03:54:17;;;;;;;4.53;4.13;;;17.70;59.10;18.50;101635.00;;;;5029749;28;20185;-50
2023/04/19 03:56:43;;;;;;;4.17;3.77;;;17.70;59.20;18.50;101637.00;;;;5029883;28;20669;-49
2023/04/19 03:59:09;;;;;;;4.10;3.80;;;17.70;59.10;18.50;101632.00;;;;5033291;28;20183;-49
2023/04/19 04:01:40;;;;;;;4.40;4.00;;;17.70;59.20;18.50;101632.00;;;;5033339;28;20210;-49
2023/04/19 04:04:07;;;;;;;4.37;3.90;;;17.70;59.20;18.40;101639.00;;;;5033394;28;20183;-49
2023/04/19 04:06:34;;;;;;;4.50;4.10;;;17.60;59.10;18.40;101642.00;;;;5033377;28;20659;-50
2023/04/19 04:08:59;;;;;;;4.60;4.20;;;17.70;59.20;18.40;101641.00;;;;5032813;28;20180;-49
2023/04/19 04:11:25;;;;;;;4.80;4.00;;;17.70;59.10;18.40;101634.00;;;;5033811;28;20188;-49
2023/04/19 04:13:51;;;;;;;4.47;4.07;;;17.60;59.10;18.40;101633.00;;;;5033807;28;20204;-49
2023/04/19 04:16:17;;;;;;;4.37;3.97;;;17.60;59.10;18.40;101632.00;;;;5031705;28;20219;-50
2023/04/19 04:18:42;;;;;;;4.47;3.93;;;17.60;59.70;18.40;101637.00;;;;5026970;28;20636;-49
2023/04/19 04:21:08;;;;;;;4.30;3.90;;;17.60;59.00;18.40;101624.00;;;;5025635;28;20205;-50
2023/04/19 04:23:34;;;;;;;5.33;3.90;;;17.60;59.10;18.40;101642.00;;;;5032212;28;20176;-49
2023/04/19 04:26:00;;;;;;;4.33;3.77;;;17.60;59.10;18.30;101639.00;;;;5024100;28;20181;-49
2023/04/19 04:28:28;;;;;;;4.83;4.00;;;17.60;59.00;18.30;101639.00;;;;5032767;28;20175;-51
2023/04/19 04:30:59;;;;;;;4.60;4.10;;;17.50;59.00;18.40;101640.00;;;;5031745;28;20176;-49
2023/04/19 04:33:25;;;;;;;4.00;3.63;;;17.60;59.10;18.40;101640.00;;;;5032609;28;20181;-50
2023/04/19 04:35:52;;;;;;;5.57;4.10;;;17.60;59.10;18.40;101642.00;;;;5032173;28;20189;-49
2023/04/19 04:38:20;;;;;;;4.20;3.80;;;17.50;59.10;18.40;101636.00;;;;5032657;28;20192;-50
2023/04/19 04:40:53;;;;;;;4.17;3.80;;;17.50;59.10;18.40;101642.00;;;;5032471;28;20202;-50
2023/04/19 04:43:27;;;;;;;6.03;4.00;;;17.60;59.20;18.40;101635.00;;;;5031688;28;20198;-50
2023/04/19 04:45:54;;;;;;;4.47;3.87;;;17.60;59.30;18.30;101636.00;;;;5031775;28;20666;-50
2023/04/19 04:48:20;;;;;;;7.63;4.20;;;17.60;59.30;18.30;101634.00;;;;5030683;28;20168;-50
2023/04/19 04:50:46;;;;;;;7.17;4.20;;;17.50;59.20;18.30;101634.00;;;;5030712;28;20189;-50
2023/04/19 04:53:12;;;;;;;6.43;3.80;;;17.60;59.40;18.30;101630.00;;;;5024895;28;20184;-50
2023/04/19 04:55:37;;;;;;;5.00;3.90;;;17.50;59.20;18.30;101636.00;;;;5030477;28;20187;-50
2023/04/19 04:58:06;;;;;;;4.50;4.10;;;17.50;59.30;18.30;101638.00;;;;5032194;28;20193;-49
2023/04/19 05:00:32;;;;;;;5.87;3.90;;;17.60;59.40;18.30;101642.00;;;;5045974;28;20188;-49
2023/04/19 05:02:58;;;;;;;9.00;5.20;;;17.50;59.40;18.20;101638.00;;;;5038166;28;20211;-50
2023/04/19 05:05:24;;;;;;;7.70;5.73;;;17.50;59.00;18.20;101630.00;;;;5032288;28;20177;-51
2023/04/19 05:07:49;;;;;;;6.73;6.00;;;17.30;58.40;18.10;101628.00;;;;5033165;28;20195;-51
2023/04/19 05:10:15;;;;;;;6.50;5.73;;;17.30;58.20;18.00;101627.00;;;;5023896;28;20214;-49
2023/04/19 05:12:41;;;;;;;6.27;5.73;;;17.30;58.00;18.00;101629.00;;;;5032236;28;20187;-51
2023/04/19 05:15:07;;;;;;;5.27;4.77;;;17.30;58.20;18.10;101637.00;;;;5040641;28;20222;-49
2023/04/19 05:17:33;;;;;;;6.17;5.07;;;17.30;58.30;18.10;101636.00;;;;5034371;28;20743;-51
2023/04/19 05:19:59;;;;;;;5.73;5.23;;;17.40;58.40;18.10;101636.00;;;;5031742;28;20184;-52
2023/04/19 05:22:25;;;;;;;7.00;4.80;;;17.40;58.50;18.10;101632.00;;;;5031134;28;20287;-51
2023/04/19 05:24:50;;;;;;;5.03;4.63;;;17.30;58.50;18.10;101629.00;;;;5031089;28;20179;-50
2023/04/19 05:27:16;;;;;;;5.50;4.50;;;17.40;58.60;18.10;101632.00;;;;5030405;28;20235;-50
2023/04/19 05:29:42;;;;;;;4.97;4.53;;;17.40;58.60;18.20;101630.00;;;;5031277;28;20211;-50
2023/04/19 05:32:08;;;;;;;4.57;4.17;;;17.40;58.60;18.10;101630.00;;;;5030968;28;20184;-51
2023/04/19 05:34:35;;;;;;;4.90;4.33;;;17.40;58.70;18.10;101626.00;;;;5030615;28;20181;-50
2023/04/19 05:37:02;;;;;;;5.43;4.63;;;17.30;58.70;18.10;101631.00;;;;5029960;28;20602;-50
2023/04/19 05:39:27;;;;;;;4.90;4.30;;;17.30;58.70;18.10;101640.00;;;;5031021;28;20226;-50
2023/04/19 05:41:53;;;;;;;4.67;4.27;;;17.30;58.70;18.10;101640.00;;;;5030803;28;20324;-50
2023/04/19 05:44:19;;;;;;;4.40;4.00;;;17.40;58.80;18.10;101636.00;;;;5028866;28;20213;-51
2023/04/19 05:46:44;;;;;;;7.60;3.93;;;17.40;58.80;18.10;101638.00;;;;5029054;28;20204;-50
2023/04/19 05:49:10;;;;;;;4.33;3.93;;;17.30;59.00;18.10;101631.00;;;;5029814;28;20208;-50
2023/04/19 05:51:36;;;;;;;4.07;3.77;;;17.30;58.80;18.10;101629.00;;;;5027675;28;20184;-50
2023/04/19 05:54:02;;;;;;;4.50;4.10;;;17.30;58.80;18.10;101617.00;;;;5034652;28;20739;-51
2023/04/19 05:56:28;;;;;;;4.10;3.80;;;17.30;58.70;18.10;101621.00;;;;5033852;28;20207;-49
2023/04/19 05:58:55;;;;;;;3.97;3.67;;;17.30;58.80;18.10;101628.00;;;;5033913;28;20187;-50
2023/04/19 06:01:21;;;;;;;4.23;3.60;;;17.30;58.80;18.10;101595.00;;;;5031850;28;20945;-50
2023/04/19 06:03:51;;;;;;;3.83;3.53;;;17.30;58.80;18.10;101615.00;;;;5029040;28;20198;-50
2023/04/19 06:06:26;;;;;;;4.17;3.80;;;17.30;58.90;18.10;101622.00;;;;5028954;28;20257;-50
2023/04/19 06:08:52;;;;;;;3.90;3.47;;;17.30;58.90;18.10;101627.00;;;;5029872;28;20179;-51
2023/04/19 06:11:17;;;;;;;4.10;3.70;;;17.30;58.90;18.10;101616.00;;;;5030592;28;20264;-51
2023/04/19 06:13:43;;;;;;;3.80;3.50;;;17.30;59.00;18.10;101623.00;;;;5030098;28;20271;-51
2023/04/19 06:16:09;;;;;;;4.17;3.27;;;17.30;59.00;18.10;101613.00;;;;5029620;28;20234;-51
2023/04/19 06:18:35;;;;;;;3.40;3.10;;;17.30;59.10;18.10;101607.00;;;;5030219;28;20199;-51
2023/04/19 06:21:01;;;;;;;3.80;3.50;;;17.30;59.00;18.10;101614.00;;;;5034795;28;20199;-51
2023/04/19 06:23:26;;;;;;;3.90;3.60;;;17.30;59.00;18.10;101616.00;;;;5033354;28;20185;-50
2023/04/19 06:25:52;;;;;;;3.50;3.20;;;17.30;59.00;18.10;101626.00;;;;5029981;28;20193;-50
2023/04/19 06:28:18;;;;;;;3.80;3.20;;;17.30;59.10;18.10;101620.00;;;;5028652;28;20273;-50
2023/04/19 06:30:44;;;;;;;3.60;3.23;;;17.20;59.00;18.10;101618.00;;;;5029575;28;20180;-50
2023/04/19 06:33:10;;;;;;;3.50;3.20;;;17.20;59.00;18.10;101620.00;;;;5027934;28;20682;-50
2023/04/19 06:35:35;;;;;;;3.47;3.17;;;17.30;59.20;18.10;101619.00;;;;5029052;28;20180;-50
2023/04/19 06:38:01;;;;;;;3.20;3.00;;;17.20;59.10;18.10;101624.00;;;;5030008;28;20191;-50
2023/04/19 06:40:30;;;;;;;3.73;3.20;;;17.20;59.10;18.10;101614.00;;;;5028417;28;20177;-50
2023/04/19 06:42:56;;;;;;;3.40;3.10;;;17.30;59.20;18.10;101622.00;;;;5029834;28;20181;-50
2023/04/19 06:45:21;;;;;;;3.30;3.00;;;17.20;59.20;18.10;101619.00;;;;5029509;28;20239;-52
2023/04/19 06:47:47;;;;;;;3.37;3.10;;;17.20;59.20;18.10;101622.00;;;;5029513;28;20232;-50
2023/04/19 06:50:13;;;;;;;3.63;3.33;;;17.20;59.20;18.10;101619.00;;;;5029891;28;20180;-50
2023/04/19 06:52:39;;;;;;;3.50;3.20;;;17.20;59.30;18.10;101617.00;;;;5030090;28;20184;-51
2023/04/19 06:55:06;;;;;;;3.80;3.00;;;17.20;59.30;18.10;101626.00;;;;5029749;28;20584;-50
2023/04/19 06:57:31;;;;;;;3.50;3.20;;;17.20;59.40;18.10;101615.00;;;;5029475;28;20562;-50
2023/04/19 06:59:58;;;;;;;3.50;3.20;;;17.20;59.40;18.00;101622.00;;;;5032939;28;20248;-50
2023/04/19 07:02:24;;;;;;;3.20;3.00;;;17.20;59.40;18.10;101622.00;;;;5028464;28;20215;-51
2023/04/19 07:04:50;;;;;;;3.40;3.20;;;17.20;59.40;18.10;101622.00;;;;5020564;28;20229;-50
2023/04/19 07:07:16;;;;;;;3.47;3.27;;;17.20;59.50;18.10;101626.00;;;;5025489;28;20254;-50
2023/04/19 07:09:41;;;;;;;3.97;3.23;;;17.20;59.60;18.00;101620.00;;;;5030747;28;20800;-50
2023/04/19 07:12:07;;;;;;;3.13;2.93;;;17.20;59.50;18.00;101616.00;;;;5030007;28;20282;-50
2023/04/19 07:14:33;;;;;;;3.60;3.30;;;17.20;59.50;18.00;101619.00;;;;5037584;28;20242;-50
2023/04/19 07:16:59;;;;;;;3.47;3.17;;;17.20;59.50;18.00;101605.00;;;;5043524;28;20210;-50
2023/04/19 07:19:25;;;;;;;3.20;2.90;;;17.20;59.60;18.00;101604.00;;;;5028883;28;20210;-50
2023/04/19 07:21:50;;;;;;;3.20;3.00;;;17.20;59.60;18.10;101597.00;;;;5032113;28;20216;-51
2023/04/19 07:24:16;;;;;;;3.13;2.90;;;17.20;59.60;18.00;101608.00;;;;5029504;28;20189;-49
2023/04/19 07:26:42;;;;;;;3.30;3.00;;;17.20;59.60;18.00;101614.00;;;;5024025;28;20218;-49
2023/04/19 07:29:08;;;;;;;3.30;3.10;;;17.20;59.60;18.00;101616.00;;;;5028451;28;20182;-50
2023/04/19 07:31:34;;;;;;;3.00;2.80;;;17.20;59.70;18.00;101598.00;;;;5029824;28;20194;-48
2023/04/19 07:33:59;;;;;;;3.10;2.90;;;17.20;59.70;18.00;101598.00;;;;5032758;28;20175;-50
2023/04/19 07:36:25;;;;;;;3.13;2.93;;;17.20;59.70;18.00;101606.00;;;;5033481;28;20591;-50
2023/04/19 07:38:51;;;;;;;3.00;2.80;;;17.20;59.70;18.00;101595.00;;;;5033312;28;20183;-50
2023/04/19 07:41:17;;;;;;;3.17;2.90;;;17.20;59.80;18.00;101596.00;;;;5033122;28;20203;-49
2023/04/19 07:43:42;;;;;;;3.27;2.97;;;17.20;59.80;18.00;101593.00;;;;5033236;28;20213;-50
2023/04/19 07:46:12;;;;;;;3.10;2.90;;;17.10;59.70;18.00;101589.00;;;;5033809;28;20167;-50
2023/04/19 07:48:38;;;;;;;3.20;3.00;;;17.20;59.90;18.00;101599.00;;;;5033726;28;20172;-50
2023/04/19 07:51:11;;;;;;;3.00;2.80;;;17.20;59.90;18.00;101596.00;;;;5032171;28;20203;-50
2023/04/19 07:53:38;;;;;;;2.97;2.77;;;17.20;59.90;18.00;101600.00;;;;5031979;28;20734;-50
2023/04/19 07:56:05;;;;;;;3.17;2.97;;;17.10;60.10;18.00;101588.00;;;;5033482;28;20195;-50
2023/04/19 07:58:31;;;;;;;3.40;3.10;;;17.20;60.20;18.00;101598.00;;;;5033379;28;20262;-49
2023/04/19 08:00:57;;;;;;;3.10;2.90;;;17.20;60.10;18.00;101599.00;;;;5032772;28;20264;-50
2023/04/19 08:03:23;;;;;;;3.30;3.10;;;17.20;60.10;18.00;101591.00;;;;5032174;28;20216;-49
2023/04/19 08:05:48;;;;;;;3.13;2.93;;;17.20;60.40;18.00;101604.00;;;;5033080;28;20188;-50
2023/04/19 08:08:14;;;;;;;4.07;3.27;;;17.20;60.70;18.00;101601.00;;;;5033061;28;20326;-49
2023/04/19 08:10:40;;;;;;;3.40;3.10;;;17.20;60.90;18.00;101602.00;;;;5033114;28;20246;-49
2023/04/19 08:13:06;;;;;;;2.90;2.70;;;17.20;60.80;18.00;101575.00;;;;5032152;28;20194;-50
2023/04/19 08:15:35;;;;;;;3.20;3.00;;;17.10;60.60;18.00;101583.00;;;;5033139;28;20184;-49
2023/04/19 08:18:03;;;;;;;3.00;2.80;;;17.20;60.70;18.00;101589.00;;;;5032779;28;20332;-49
2023/04/19 08:20:30;;;;;;;3.00;2.80;;;17.20;60.80;18.00;101599.00;;;;5032487;28;20172;-49
2023/04/19 08:22:56;;;;;;;3.13;2.93;;;17.20;60.80;18.10;101590.00;;;;5028068;28;20826;-50
2023/04/19 08:25:25;;;;;;;3.47;3.10;;;17.20;60.80;18.00;101576.00;;;;5028959;28;20233;-50
2023/04/19 08:27:51;;;;;;;7.50;3.20;;;17.20;61.00;18.00;101598.00;;;;5025147;28;20214;-50
2023/04/19 08:30:17;;;;;;;4.60;3.10;;;17.10;60.90;18.00;101594.00;;;;5027532;28;20354;-49
2023/04/19 08:32:43;;;;;;;3.10;2.90;;;17.20;61.00;18.00;101595.00;;;;5032376;28;20179;-48
2023/04/19 08:35:09;;;;;;;3.10;2.90;;;17.20;61.00;18.00;101586.00;;;;5030881;28;20187;-51
2023/04/19 08:37:35;;;;;;;4.23;2.90;;;17.20;61.00;17.80;101603.00;;;;5032536;28;20213;-49
2023/04/19 08:40:00;;;;;;;4.07;2.90;;;17.20;60.90;18.10;101604.00;;;;5032605;28;20555;-49
2023/04/19 08:42:26;;;;;;;4.53;2.97;;;17.20;60.90;18.10;101603.00;;;;5032345;28;20673;-51
2023/04/19 08:44:52;;;;;;;3.03;2.83;;;17.20;60.80;18.10;101585.00;;;;5031023;28;20180;-50
2023/04/19 08:47:18;;;;;;;5.43;3.10;;;17.20;60.50;18.10;101589.00;;;;5031174;28;20230;-50
2023/04/19 08:49:44;;;;;;;5.47;3.23;;;17.20;60.50;18.10;101591.00;;;;5022558;28;20803;-49
2023/04/19 08:52:10;;;;;;;3.43;3.13;;;17.20;60.50;18.00;101603.00;;;;5020583;28;20206;-51
2023/04/19 08:54:36;;;;;;;3.43;3.10;;;17.20;60.60;18.10;101594.00;;;;4996980;28;20183;-50
2023/04/19 08:57:02;;;;;;;3.30;3.00;;;17.20;60.50;18.10;101597.00;;;;5030963;28;20712;-49
2023/04/19 08:59:29;;;;;;;4.03;3.20;;;17.20;60.30;18.00;101597.00;;;;5032212;28;20272;-50
2023/04/19 09:01:58;;;;;;;5.57;3.20;;;17.20;60.20;18.00;101600.00;;;;5032155;28;20241;-51
2023/04/19 09:04:24;;;;;;;3.70;3.23;;;17.20;60.20;18.10;101599.00;;;;5047439;28;20187;-50
2023/04/19 09:06:50;;;;;;;3.70;3.30;;;17.10;60.10;18.10;101594.00;;;;5038630;28;20195;-50
2023/04/19 09:09:20;;;;;;;3.03;2.83;;;17.10;60.00;18.00;101595.00;;;;5033566;28;20192;-51
2023/04/19 09:11:46;;;;;;;4.10;3.30;;;17.10;59.90;18.00;101602.00;;;;5034198;28;20181;-50
2023/04/19 09:14:14;;;;;;;3.80;3.03;;;17.20;59.60;18.00;101594.00;;;;5033234;28;20176;-52
2023/04/19 09:16:40;;;;;;;3.30;3.00;;;17.10;59.30;18.00;101576.00;;;;5032108;28;20765;-52
2023/04/19 09:19:08;;;;;;;3.67;3.17;;;17.10;59.10;18.00;101510.00;;;;5039226;28;20194;-52
2023/04/19 09:21:34;;;;;;;3.23;2.70;;;17.10;58.90;18.00;101588.00;;;;5028037;28;20223;-50
2023/04/19 09:24:00;;;;;;;3.40;3.10;;;17.10;58.60;18.00;101602.00;;;;5020116;28;20730;-51
2023/04/19 09:26:28;;;;;;;3.83;3.23;;;17.10;58.60;18.00;101588.00;;;;5028180;28;20678;-49
2023/04/19 09:29:06;;;;;;;3.17;2.97;;;17.10;58.50;18.10;101584.00;;;;5019828;28;20177;-49
2023/04/19 09:31:36;;;;;;;3.20;3.00;;;17.10;58.50;18.00;101571.00;;;;5027284;28;20186;-50
2023/04/19 09:34:18;;;;;;;3.77;3.47;;;17.10;58.30;18.10;101567.00;;;;5030991;28;20180;-49
2023/04/19 09:36:44;;;;;;;3.80;3.40;;;17.10;58.20;18.00;101569.00;;;;5029214;28;20285;-50
2023/04/19 09:39:10;;;;;;;3.37;3.07;;;17.10;58.10;18.00;101561.00;;;;5031563;28;20264;-50
2023/04/19 09:41:50;;;;;;;3.33;3.07;;;17.10;58.10;18.00;101565.00;;;;5031250;28;20203;-50
2023/04/19 09:44:16;;;;;;;3.40;3.10;;;17.10;58.20;18.00;101560.00;;;;5029752;28;20179;-50
2023/04/19 09:46:44;;;;;;;3.47;3.00;;;17.10;58.20;18.00;101561.00;;;;5029743;28;20223;-50
2023/04/19 09:49:12;;;;;;;3.53;2.83;;;17.10;57.90;18.00;101556.00;;;;5031393;28;20187;-50
2023/04/19 09:51:46;;;;;;;3.50;3.20;;;17.10;57.80;18.00;101557.00;;;;5031758;28;20183;-51
2023/04/19 09:54:12;;;;;;;3.60;3.10;;;17.10;57.80;18.00;101578.00;;;;5031054;28;20200;-51
2023/04/19 09:56:38;;;;;;;3.77;3.33;;;17.10;57.50;18.00;101550.00;;;;5035774;28;20286;-50
2023/04/19 09:59:05;;;;;;;4.03;3.30;;;17.10;57.00;18.00;101558.00;;;;5035379;28;20179;-50
2023/04/19 10:01:54;;;;;;;3.43;3.13;;;17.10;56.60;18.00;101556.00;;;;5032531;28;20204;-50
2023/04/19 10:04:20;;;;;;;4.27;3.60;;;17.10;56.50;18.00;101560.00;;;;5031311;28;20188;-51
2023/04/19 10:06:55;;;;;;;3.50;3.20;;;17.10;56.40;18.00;101545.00;;;;5030064;28;20191;-50
2023/04/19 10:09:21;;;;;;;3.07;2.80;;;17.10;56.00;18.00;101559.00;;;;5031016;28;20258;-49
2023/04/19 10:11:51;;;;;;;3.50;3.20;;;17.00;55.90;18.00;101536.00;;;;5031065;28;20253;-50
2023/04/19 10:14:22;;;;;;;3.33;3.03;;;17.10;55.90;18.00;101531.00;;;;5025041;28;20181;-49
2023/04/19 10:16:47;;;;;;;3.97;3.07;;;17.10;55.80;18.00;101546.00;;;;5030917;28;20726;-50
2023/04/19 10:19:16;;;;;;;3.10;2.80;;;17.10;55.80;18.00;101540.00;;;;5029864;28;20273;-50
2023/04/19 10:21:42;;;;;;;3.57;3.00;;;17.10;55.90;18.00;101548.00;;;;5029595;28;20208;-50
2023/04/19 10:24:08;;;;;;;3.10;2.80;;;17.00;55.80;18.00;101528.00;;;;5031287;28;20171;-50
2023/04/19 10:27:12;;;;;;;3.30;3.00;;;17.10;55.60;18.00;101549.00;;;;5027853;28;20293;-49
2023/04/19 10:30:00;;;;;;;3.50;3.00;;;17.00;55.60;18.00;101551.00;;;;5029575;28;20189;-49
2023/04/19 10:32:36;;;;;;;4.30;3.17;;;17.10;55.50;18.00;101536.00;;;;5031124;28;20170;-50
2023/04/19 10:35:10;;;;;;;3.60;2.80;;;17.00;55.20;18.00;101531.00;;;;5030791;28;20224;-50
2023/04/19 10:37:40;;;;;;;3.20;2.90;;;17.00;55.20;18.00;101534.00;;;;5013027;28;20193;-50
2023/04/19 10:40:07;;;;;;;3.63;3.00;;;17.00;55.20;18.00;101533.00;;;;5030856;28;20179;-49
2023/04/19 10:43:10;;;;;;;3.27;2.97;;;17.00;55.00;18.10;101543.00;;;;5030679;28;20200;-49
2023/04/19 10:45:36;;;;;;;3.00;2.80;;;17.00;55.00;18.00;101532.00;;;;5030591;28;20189;-49